createdAt,value
2017-12-11T00:01:49.726Z,3.83
2017-12-11T00:04:17.508Z,4.13
2017-12-11T00:06:45.354Z,2.77
2017-12-11T00:09:13.123Z,3.33
2017-12-11T00:11:41.088Z,3.43
2017-12-11T00:14:08.977Z,2.33
2017-12-11T00:16:36.863Z,2.63
2017-12-11T00:19:04.750Z,2.50
2017-12-11T00:21:32.969Z,2.93
2017-12-11T00:24:00.932Z,3.37
2017-12-11T00:26:28.706Z,2.83
2017-12-11T00:28:56.478Z,2.43
2017-12-11T00:31:24.633Z,3.67
2017-12-11T00:33:52.442Z,2.60
2017-12-11T00:36:21.191Z,2.30
2017-12-11T00:38:48.973Z,2.03
2017-12-11T00:41:16.842Z,2.03
2017-12-11T00:43:44.707Z,2.00
2017-12-11T00:46:12.564Z,1.90
2017-12-11T00:48:40.408Z,1.53
2017-12-11T00:51:08.402Z,1.90
2017-12-11T00:53:36.247Z,1.93
2017-12-11T00:56:04.083Z,1.97
2017-12-11T00:58:31.861Z,2.10
2017-12-11T01:01:00.872Z,1.77
2017-12-11T01:03:28.750Z,2.40
2017-12-11T01:05:56.623Z,2.00
2017-12-11T01:08:24.471Z,1.90
2017-12-11T01:10:53.142Z,1.53
2017-12-11T01:13:20.964Z,1.67
2017-12-11T01:15:48.802Z,2.00
2017-12-11T01:18:16.760Z,2.70
2017-12-11T01:20:44.648Z,4.10
2017-12-11T01:23:12.510Z,3.83
2017-12-11T01:25:41.993Z,3.43
2017-12-11T01:28:09.987Z,3.67
2017-12-11T01:30:38.647Z,5.00
2017-12-11T01:33:06.541Z,3.80
2017-12-11T01:35:35.057Z,4.17
2017-12-11T01:38:03.577Z,5.33
2017-12-11T01:40:31.422Z,4.80
2017-12-11T01:42:59.255Z,5.13
2017-12-11T01:45:28.606Z,5.07
2017-12-11T01:47:56.477Z,5.50
2017-12-11T01:50:24.295Z,5.67
2017-12-11T01:52:52.951Z,5.43
2017-12-11T01:55:20.744Z,6.00
2017-12-11T01:57:49.395Z,5.77
2017-12-11T02:00:17.376Z,6.27
2017-12-11T02:02:45.223Z,5.93
2017-12-11T02:05:12.989Z,6.73
2017-12-11T02:07:40.872Z,5.93
2017-12-11T02:10:08.733Z,5.00
2017-12-11T02:12:36.574Z,6.30
2017-12-11T02:15:04.563Z,7.00
2017-12-11T02:17:32.375Z,7.00
2017-12-11T02:20:00.817Z,8.57
2017-12-11T02:22:28.676Z,7.20
2017-12-11T02:24:56.534Z,6.73
2017-12-11T02:27:24.388Z,6.70
2017-12-11T02:29:52.373Z,7.30
2017-12-11T02:32:20.387Z,6.60
2017-12-11T02:34:49.030Z,7.67
2017-12-11T02:37:16.923Z,6.27
2017-12-11T02:39:45.519Z,7.73
2017-12-11T02:42:14.154Z,7.77
2017-12-11T02:44:42.032Z,8.00
2017-12-11T02:47:09.957Z,6.77
2017-12-11T02:49:37.961Z,8.07
2017-12-11T02:52:05.875Z,8.50
2017-12-11T02:54:34.392Z,7.83
2017-12-11T02:57:02.284Z,7.97
2017-12-11T02:59:31.590Z,9.33
2017-12-11T03:01:59.554Z,8.00
2017-12-11T03:04:27.414Z,8.70
2017-12-11T03:06:55.288Z,8.60
2017-12-11T03:09:23.150Z,9.67
2017-12-11T03:11:51.023Z,8.30
2017-12-11T03:14:18.933Z,8.40
2017-12-11T03:16:46.950Z,8.50
2017-12-11T03:19:15.004Z,7.80
2017-12-11T03:21:42.775Z,7.93
2017-12-11T03:24:10.852Z,9.10
2017-12-11T03:26:38.728Z,8.20
2017-12-11T03:29:06.609Z,9.23
2017-12-11T03:31:34.870Z,8.20
2017-12-11T03:34:03.144Z,7.30
2017-12-11T03:36:31.111Z,6.87
2017-12-11T03:38:59.172Z,5.77
2017-12-11T03:41:27.007Z,5.60
2017-12-11T03:43:55.322Z,6.10
2017-12-11T03:46:23.100Z,5.10
2017-12-11T03:48:50.898Z,5.10
2017-12-11T03:51:19.647Z,6.90
2017-12-11T03:53:47.617Z,6.13
2017-12-11T03:56:16.317Z,6.13
2017-12-11T03:58:45.039Z,4.77
2017-12-11T04:01:12.794Z,6.83
2017-12-11T04:03:41.441Z,6.07
2017-12-11T04:06:09.304Z,6.80
2017-12-11T04:08:37.249Z,6.07
2017-12-11T04:11:05.069Z,7.13
2017-12-11T04:13:33.931Z,8.10
2017-12-11T04:16:01.886Z,5.90
2017-12-11T04:18:29.774Z,6.20
2017-12-11T04:20:57.811Z,6.57
2017-12-11T04:23:25.591Z,5.63
2017-12-11T04:25:53.468Z,6.63
2017-12-11T04:28:21.323Z,5.87
2017-12-11T04:30:49.681Z,5.90
2017-12-11T04:33:17.447Z,6.10
2017-12-11T04:35:45.173Z,6.00
2017-12-11T04:38:13.030Z,5.27
2017-12-11T04:40:40.790Z,5.30
2017-12-11T04:43:09.436Z,5.57
2017-12-11T04:45:37.345Z,5.27
2017-12-11T04:48:05.887Z,5.40
2017-12-11T04:50:33.636Z,6.17
2017-12-11T04:53:01.522Z,3.50
2017-12-11T04:55:29.373Z,2.90
2017-12-11T04:57:57.249Z,3.00
2017-12-11T05:00:25.310Z,2.37
2017-12-11T05:02:53.080Z,2.47
2017-12-11T05:05:21.167Z,1.60
2017-12-11T05:07:49.757Z,1.40
2017-12-11T05:10:17.696Z,1.80
2017-12-11T05:12:45.687Z,1.00
2017-12-11T05:15:13.669Z,0.90
2017-12-11T05:17:41.527Z,0.83
2017-12-11T05:20:10.494Z,0.93
2017-12-11T05:22:38.931Z,0.77
2017-12-11T05:25:07.465Z,0.87
2017-12-11T05:27:35.340Z,1.00
2017-12-11T05:30:03.185Z,0.80
2017-12-11T05:32:31.083Z,1.13
2017-12-11T05:34:58.939Z,1.10
2017-12-11T05:37:26.739Z,1.00
2017-12-11T05:39:55.398Z,1.10
2017-12-11T05:42:23.186Z,2.70
2017-12-11T05:44:51.935Z,4.00
2017-12-11T05:47:19.931Z,3.53
2017-12-11T05:49:47.749Z,1.53
2017-12-11T05:52:15.606Z,5.80
2017-12-11T05:54:43.515Z,3.60
2017-12-11T05:57:11.311Z,1.77
2017-12-11T05:59:39.962Z,2.50
2017-12-11T06:02:07.826Z,2.20
2017-12-11T06:04:36.311Z,2.57
2017-12-11T06:07:06.815Z,2.63
2017-12-11T06:09:34.703Z,2.00
2017-12-11T06:12:02.756Z,1.80
2017-12-11T06:14:30.961Z,1.63
2017-12-11T06:16:59.019Z,1.80
2017-12-11T06:19:27.068Z,2.73
2017-12-11T06:21:55.056Z,2.37
2017-12-11T06:24:23.023Z,1.77
2017-12-11T06:26:51.133Z,1.77
2017-12-11T06:29:19.822Z,1.43
2017-12-11T06:31:48.370Z,1.60
2017-12-11T06:34:16.278Z,1.33
2017-12-11T06:36:44.471Z,1.60
2017-12-11T06:39:12.252Z,1.60
2017-12-11T06:41:40.142Z,1.90
2017-12-11T06:44:07.906Z,1.40
2017-12-11T06:46:35.747Z,1.27
2017-12-11T06:49:03.539Z,1.00
2017-12-11T06:51:31.508Z,3.27
2017-12-11T06:53:59.446Z,2.93
2017-12-11T06:56:28.669Z,1.90
2017-12-11T06:58:56.637Z,1.80
2017-12-11T07:01:24.411Z,1.93
2017-12-11T07:03:52.362Z,1.50
2017-12-11T07:06:20.342Z,1.80
2017-12-11T07:08:48.206Z,1.30
2017-12-11T07:11:16.083Z,1.60
2017-12-11T07:13:43.855Z,1.40
2017-12-11T07:16:11.783Z,1.67
2017-12-11T07:18:40.582Z,1.30
2017-12-11T07:21:09.255Z,1.30
2017-12-11T07:23:37.330Z,5.90
2017-12-11T07:26:05.220Z,18.80
2017-12-11T07:28:32.988Z,27.17
2017-12-11T07:31:00.790Z,1.27
2017-12-11T07:33:28.545Z,1.80
2017-12-11T07:35:57.173Z,14.33
2017-12-11T07:38:25.033Z,2.23
2017-12-11T07:40:53.007Z,2.13
2017-12-11T07:43:21.919Z,2.67
2017-12-11T07:45:49.869Z,2.70
2017-12-11T07:48:18.390Z,2.40
2017-12-11T07:50:46.948Z,14.50
2017-12-11T07:53:14.799Z,31.10
2017-12-11T07:55:42.571Z,9.73
2017-12-11T07:58:10.337Z,13.07
2017-12-11T08:00:38.824Z,30.90
2017-12-11T08:03:07.568Z,2.90
2017-12-11T08:05:35.475Z,14.50
2017-12-11T08:08:03.273Z,3.17
2017-12-11T08:10:31.922Z,2.00
2017-12-11T08:12:59.878Z,1.83
2017-12-11T08:15:27.663Z,2.00
2017-12-11T08:17:55.426Z,4.40
2017-12-11T08:20:23.298Z,5.50
2017-12-11T08:22:52.195Z,6.03
2017-12-11T08:25:20.061Z,2.43
2017-12-11T08:27:48.034Z,28.60
2017-12-11T08:30:15.973Z,2.10
2017-12-11T08:32:43.866Z,1.63
2017-12-11T08:35:11.712Z,6.17
2017-12-11T08:37:39.593Z,3.57
2017-12-11T08:40:07.837Z,2.57
2017-12-11T08:42:35.810Z,1.90
2017-12-11T08:45:03.675Z,2.00
2017-12-11T08:47:31.494Z,2.40
2017-12-11T08:50:00.022Z,2.00
2017-12-11T08:52:27.819Z,2.57
2017-12-11T08:54:55.587Z,2.27
2017-12-11T08:57:24.050Z,4.47
2017-12-11T08:59:52.026Z,3.50
2017-12-11T09:02:20.205Z,1.80
2017-12-11T09:04:48.144Z,1.60
2017-12-11T09:07:16.040Z,5.40
2017-12-11T09:09:43.959Z,10.83
2017-12-11T09:12:11.874Z,8.30
2017-12-11T09:14:39.747Z,5.00
2017-12-11T09:17:07.704Z,3.30
2017-12-11T09:19:35.574Z,2.70
2017-12-11T09:22:03.441Z,2.30
2017-12-11T09:24:32.029Z,2.33
2017-12-11T09:26:59.876Z,2.00
2017-12-11T09:29:27.737Z,1.97
2017-12-11T09:31:55.550Z,2.50
2017-12-11T09:34:24.175Z,4.10
2017-12-11T09:36:52.375Z,3.63
2017-12-11T09:39:20.148Z,1.93
2017-12-11T09:41:47.968Z,2.17
2017-12-11T09:44:15.851Z,1.57
2017-12-11T09:46:43.737Z,0.60
2017-12-11T09:49:11.731Z,1.20
2017-12-11T09:51:40.299Z,6.80
2017-12-11T09:54:08.242Z,6.83
2017-12-11T09:56:36.134Z,9.63
2017-12-11T09:59:04.167Z,9.37
2017-12-11T10:01:32.287Z,8.10
2017-12-11T10:04:00.988Z,11.27
2017-12-11T10:06:30.209Z,12.27
2017-12-11T10:08:58.219Z,12.30
2017-12-11T10:11:26.024Z,12.57
2017-12-11T10:13:54.682Z,12.87
2017-12-11T10:16:22.512Z,12.20
2017-12-11T10:18:50.486Z,13.20
2017-12-11T10:21:18.264Z,11.20
2017-12-11T10:23:46.218Z,12.30
2017-12-11T10:26:14.083Z,12.17
2017-12-11T10:28:42.149Z,10.97
2017-12-11T10:31:10.039Z,11.27
2017-12-11T10:33:37.973Z,14.03
2017-12-11T10:36:05.875Z,11.80
2017-12-11T10:38:33.828Z,11.30
2017-12-11T10:41:01.727Z,10.70
2017-12-11T10:43:29.581Z,11.23
2017-12-11T10:45:57.444Z,13.80
2017-12-11T10:48:25.313Z,15.13
2017-12-11T10:50:53.083Z,15.37
2017-12-11T10:53:20.901Z,15.07
2017-12-11T10:55:49.807Z,14.63
2017-12-11T10:58:19.318Z,11.97
2017-12-11T11:00:47.089Z,14.50
2017-12-11T11:03:14.970Z,16.20
2017-12-11T11:05:42.831Z,13.70
2017-12-11T11:08:10.783Z,13.53
2017-12-11T11:10:39.471Z,14.30
2017-12-11T11:13:07.335Z,13.70
2017-12-11T11:15:36.243Z,13.47
2017-12-11T11:18:04.203Z,8.30
2017-12-11T11:20:33.136Z,0.70
2017-12-11T11:23:01.876Z,0.50
2017-12-11T11:25:29.659Z,0.70
2017-12-11T11:27:57.648Z,0.60
2017-12-11T11:30:26.308Z,0.60
2017-12-11T11:32:54.083Z,0.57
2017-12-11T11:35:22.135Z,1.23
2017-12-11T11:37:50.010Z,0.70
2017-12-11T11:40:17.885Z,0.70
2017-12-11T11:42:47.080Z,0.60
2017-12-11T11:45:14.848Z,0.60
2017-12-11T11:47:42.793Z,0.60
2017-12-11T11:50:10.574Z,0.70
2017-12-11T11:52:38.511Z,0.50
2017-12-11T11:55:07.310Z,0.50
2017-12-11T11:57:36.201Z,0.50
2017-12-11T12:00:04.093Z,0.50
2017-12-11T12:02:31.921Z,0.50
2017-12-11T12:04:59.909Z,0.60
2017-12-11T12:07:27.910Z,0.60
2017-12-11T12:09:56.660Z,0.60
2017-12-11T12:12:24.630Z,0.53
2017-12-11T12:14:52.434Z,1.07
2017-12-11T12:17:20.364Z,0.70
2017-12-11T12:19:48.362Z,0.97
2017-12-11T12:22:17.770Z,0.80
2017-12-11T12:24:46.456Z,0.60
2017-12-11T12:27:14.369Z,0.70
2017-12-11T12:29:42.588Z,0.50
2017-12-11T12:32:12.068Z,0.60
2017-12-11T12:34:39.972Z,0.60
2017-12-11T12:37:07.902Z,0.50
2017-12-11T12:39:35.791Z,0.60
2017-12-11T12:42:04.532Z,0.50
2017-12-11T12:44:32.339Z,0.63
2017-12-11T12:47:00.325Z,0.70
2017-12-11T12:49:28.258Z,0.50
2017-12-11T12:51:56.157Z,0.60
2017-12-11T12:54:24.300Z,0.60
2017-12-11T12:56:53.013Z,0.60
2017-12-11T12:59:21.138Z,0.53
2017-12-11T13:01:49.045Z,0.63
2017-12-11T13:04:17.054Z,0.57
2017-12-11T13:06:45.699Z,0.47
2017-12-11T13:09:13.648Z,0.60
2017-12-11T13:11:41.433Z,0.60
2017-12-11T13:14:10.017Z,0.50
2017-12-11T13:16:37.886Z,0.60
2017-12-11T13:19:05.824Z,0.60
2017-12-11T13:21:33.654Z,0.70
2017-12-11T13:24:02.947Z,0.50
2017-12-11T13:26:31.596Z,0.60
2017-12-11T13:28:59.549Z,0.70
2017-12-11T13:31:27.518Z,0.50
2017-12-11T13:33:55.487Z,0.60
2017-12-11T13:36:23.383Z,0.50
2017-12-11T13:38:51.360Z,0.50
2017-12-11T13:41:19.219Z,0.57
2017-12-11T13:43:47.575Z,0.70
2017-12-11T13:46:15.466Z,1.00
2017-12-11T13:48:43.839Z,0.70
2017-12-11T13:51:11.806Z,0.60
2017-12-11T13:53:39.706Z,0.67
2017-12-11T13:56:07.658Z,0.50
2017-12-11T13:58:36.319Z,0.60
2017-12-11T14:01:04.279Z,0.57
2017-12-11T14:03:32.305Z,0.60
2017-12-11T14:06:01.236Z,0.60
2017-12-11T14:08:29.113Z,6.17
2017-12-11T14:10:56.989Z,10.20
2017-12-11T14:13:27.290Z,9.27
2017-12-11T14:15:55.188Z,10.30
2017-12-11T14:18:23.059Z,10.00
2017-12-11T14:20:51.316Z,9.90
2017-12-11T14:23:19.305Z,9.40
2017-12-11T14:25:47.240Z,8.37
2017-12-11T14:28:15.169Z,9.37
2017-12-11T14:30:43.203Z,7.60
2017-12-11T14:33:11.191Z,8.67
2017-12-11T14:35:39.336Z,9.97
2017-12-11T14:38:07.399Z,9.87
2017-12-11T14:40:35.666Z,9.17
2017-12-11T14:43:03.800Z,9.23
2017-12-11T14:45:31.925Z,7.93
2017-12-11T14:47:59.983Z,7.20
2017-12-11T14:50:27.850Z,7.10
2017-12-11T14:52:55.734Z,7.23
2017-12-11T14:55:23.814Z,8.33
2017-12-11T14:57:51.993Z,8.07
2017-12-11T15:00:20.766Z,9.27
2017-12-11T15:02:49.545Z,7.13
2017-12-11T15:05:17.829Z,5.63
2017-12-11T15:07:45.924Z,5.23
2017-12-11T15:10:14.857Z,3.97
2017-12-11T15:12:42.744Z,3.37
2017-12-11T15:15:11.338Z,3.70
2017-12-11T15:17:39.478Z,2.97
2017-12-11T15:20:07.478Z,2.37
2017-12-11T15:22:36.182Z,2.00
2017-12-11T15:25:04.170Z,1.30
2017-12-11T15:27:33.011Z,1.27
2017-12-11T15:30:00.982Z,1.20
2017-12-11T15:32:28.859Z,0.90
2017-12-11T15:34:56.817Z,1.43
2017-12-11T15:37:24.582Z,1.10
2017-12-11T15:39:52.551Z,1.00
2017-12-11T15:42:20.442Z,0.80
2017-12-11T15:44:49.641Z,0.93
2017-12-11T15:47:18.283Z,1.20
2017-12-11T15:49:46.221Z,0.90
2017-12-11T15:52:14.828Z,0.80
2017-12-11T15:54:42.762Z,1.07
2017-12-11T15:57:11.510Z,0.90
2017-12-11T15:59:39.618Z,1.40
2017-12-11T16:02:07.648Z,1.70
2017-12-11T16:04:35.840Z,1.00
2017-12-11T16:07:03.892Z,1.53
2017-12-11T16:09:31.974Z,1.50
2017-12-11T16:12:00.127Z,1.40
2017-12-11T16:14:28.312Z,1.30
2017-12-11T16:16:56.300Z,2.27
2017-12-11T16:19:24.158Z,2.47
2017-12-11T16:21:52.037Z,1.93
2017-12-11T16:24:20.086Z,1.10
2017-12-11T16:26:47.982Z,1.73
2017-12-11T16:29:15.823Z,1.43
2017-12-11T16:31:43.820Z,1.60
2017-12-11T16:34:13.823Z,1.63
2017-12-11T16:36:41.793Z,1.33
2017-12-11T16:39:10.367Z,0.90
2017-12-11T16:41:38.325Z,1.00
2017-12-11T16:44:06.400Z,1.27
2017-12-11T16:46:34.221Z,0.80
2017-12-11T16:49:02.865Z,0.80
2017-12-11T16:51:30.650Z,2.00
2017-12-11T16:53:59.425Z,1.10
2017-12-11T16:56:27.364Z,0.97
2017-12-11T16:58:55.248Z,0.90
2017-12-11T17:01:23.311Z,1.00
2017-12-11T17:03:51.175Z,1.03
2017-12-11T17:06:19.107Z,0.70
2017-12-11T17:08:47.104Z,0.70
2017-12-11T17:11:14.896Z,0.90
2017-12-11T17:13:42.761Z,1.20
2017-12-11T17:16:10.616Z,0.83
2017-12-11T17:18:38.392Z,0.60
2017-12-11T17:21:06.460Z,1.10
2017-12-11T17:23:34.436Z,1.20
2017-12-11T17:26:02.197Z,0.70
2017-12-11T17:28:30.072Z,2.07
2017-12-11T17:30:57.928Z,0.77
2017-12-11T17:33:25.877Z,3.90
2017-12-11T17:35:53.655Z,1.20
2017-12-11T17:38:21.516Z,1.07
2017-12-11T17:40:49.387Z,2.33
2017-12-11T17:43:17.345Z,1.20
2017-12-11T17:45:45.333Z,2.83
2017-12-11T17:48:16.771Z,1.90
2017-12-11T17:50:44.727Z,1.00
2017-12-11T17:53:12.711Z,1.00
2017-12-11T17:55:40.664Z,1.50
2017-12-11T17:58:09.705Z,1.00
2017-12-11T18:00:38.465Z,0.60
2017-12-11T18:03:06.487Z,0.70
2017-12-11T18:05:34.249Z,0.90
2017-12-11T18:08:02.183Z,0.80
2017-12-11T18:10:30.045Z,1.20
2017-12-11T18:12:57.917Z,1.43
2017-12-11T18:15:25.883Z,0.90
2017-12-11T18:17:53.823Z,1.30
2017-12-11T18:20:21.736Z,1.10
2017-12-11T18:22:50.423Z,1.07
2017-12-11T18:25:19.383Z,1.00
2017-12-11T18:27:47.746Z,1.20
2017-12-11T18:30:15.711Z,1.67
2017-12-11T18:32:43.889Z,1.10
2017-12-11T18:35:11.827Z,0.90
2017-12-11T18:37:39.648Z,1.37
2017-12-11T18:40:07.472Z,1.33
2017-12-11T18:42:36.473Z,1.30
2017-12-11T18:45:04.490Z,1.13
2017-12-11T18:47:33.345Z,1.57
2017-12-11T18:50:01.304Z,1.30
2017-12-11T18:52:29.425Z,1.20
2017-12-11T18:54:58.296Z,2.27
2017-12-11T18:57:26.337Z,1.23
2017-12-11T18:59:54.337Z,1.40
2017-12-11T19:02:23.309Z,1.10
2017-12-11T19:04:51.170Z,1.17
2017-12-11T19:07:19.346Z,1.40
2017-12-11T19:09:47.721Z,1.67
2017-12-11T19:12:16.900Z,1.50
2017-12-11T19:14:44.984Z,1.70
2017-12-11T19:17:13.214Z,1.70
2017-12-11T19:19:41.333Z,1.50
2017-12-11T19:22:09.729Z,1.80
2017-12-11T19:24:38.417Z,2.33
2017-12-11T19:27:06.980Z,1.83
2017-12-11T19:29:34.889Z,2.50
2017-12-11T19:32:04.149Z,1.57
2017-12-11T19:34:32.948Z,3.27
2017-12-11T19:37:00.783Z,3.17
2017-12-11T19:39:29.190Z,5.70
2017-12-11T19:41:57.868Z,12.17
2017-12-11T19:44:26.683Z,7.97
2017-12-11T19:46:56.354Z,7.27
2017-12-11T19:49:26.135Z,6.37
2017-12-11T19:51:55.594Z,7.20
2017-12-11T19:54:25.669Z,6.00
2017-12-11T19:56:57.032Z,4.80
2017-12-11T19:59:27.467Z,5.33
2017-12-11T20:01:57.176Z,7.40
2017-12-11T20:04:28.243Z,8.80
2017-12-11T20:06:58.818Z,5.47
2017-12-11T20:09:29.077Z,4.10
2017-12-11T20:11:59.870Z,3.70
2017-12-11T20:14:29.925Z,4.07
2017-12-11T20:17:01.532Z,3.60
2017-12-11T20:19:31.557Z,4.33
2017-12-11T20:22:01.244Z,6.50
2017-12-11T20:24:31.139Z,5.90
2017-12-11T20:27:03.807Z,6.30
2017-12-11T20:29:33.551Z,19.60
2017-12-11T20:32:03.745Z,5.20
2017-12-11T20:34:35.196Z,3.80
2017-12-11T20:37:05.875Z,4.20
2017-12-11T20:39:35.751Z,3.37
2017-12-11T20:42:05.982Z,3.30
2017-12-11T20:44:36.197Z,3.30
2017-12-11T20:47:06.391Z,2.70
2017-12-11T20:49:35.427Z,2.10
2017-12-11T20:52:04.987Z,2.80
2017-12-11T20:54:36.262Z,2.40
2017-12-11T20:57:06.305Z,2.77
2017-12-11T20:59:36.737Z,3.00
2017-12-11T21:02:07.758Z,3.43
2017-12-11T21:04:38.783Z,2.50
2017-12-11T21:07:08.049Z,1.93
2017-12-11T21:09:38.007Z,2.57
2017-12-11T21:12:07.869Z,2.33
2017-12-11T21:14:37.175Z,2.00
2017-12-11T21:17:06.704Z,2.73
2017-12-11T21:19:35.981Z,2.90
2017-12-11T21:22:06.186Z,3.87
2017-12-11T21:24:34.982Z,1.50
2017-12-11T21:27:04.481Z,1.87
2017-12-11T21:29:33.600Z,1.97
2017-12-11T21:32:03.148Z,2.37
2017-12-11T21:34:33.338Z,1.80
2017-12-11T21:37:02.683Z,1.80
2017-12-11T21:39:30.805Z,1.57
2017-12-11T21:41:58.770Z,1.40
2017-12-11T21:44:26.884Z,1.47
2017-12-11T21:46:55.648Z,1.00
2017-12-11T21:49:23.524Z,1.17
2017-12-11T21:51:51.670Z,1.03
2017-12-11T21:54:19.953Z,1.00
2017-12-11T21:56:47.836Z,1.13
2017-12-11T21:59:15.879Z,1.33
2017-12-11T22:01:44.194Z,1.40
2017-12-11T22:04:12.825Z,1.20
2017-12-11T22:06:40.715Z,1.23
2017-12-11T22:09:08.616Z,1.63
2017-12-11T22:11:37.403Z,1.77
2017-12-11T22:14:06.387Z,1.00
2017-12-11T22:16:35.802Z,1.10
2017-12-11T22:19:05.402Z,1.10
2017-12-11T22:21:33.357Z,1.87
2017-12-11T22:24:01.142Z,2.10
2017-12-11T22:26:30.932Z,1.50
2017-12-11T22:28:58.792Z,1.80
2017-12-11T22:31:26.610Z,1.73
2017-12-11T22:33:54.400Z,1.20
2017-12-11T22:36:22.312Z,1.10
2017-12-11T22:38:50.263Z,1.10
2017-12-11T22:41:18.130Z,0.90
2017-12-11T22:43:46.014Z,1.20
2017-12-11T22:46:13.862Z,1.20
2017-12-11T22:48:41.733Z,0.70
2017-12-11T22:51:09.598Z,0.90
2017-12-11T22:53:37.538Z,1.10
2017-12-11T22:56:05.390Z,0.90
2017-12-11T22:58:33.290Z,0.87
2017-12-11T23:01:01.242Z,0.70
2017-12-11T23:03:29.121Z,0.60
2017-12-11T23:05:57.017Z,0.60
2017-12-11T23:08:24.953Z,0.50
2017-12-11T23:10:52.730Z,0.63
2017-12-11T23:13:20.712Z,0.50
2017-12-11T23:15:49.324Z,0.53
2017-12-11T23:18:17.860Z,0.50
2017-12-11T23:20:45.726Z,0.50
2017-12-11T23:23:13.554Z,0.70
2017-12-11T23:25:41.361Z,0.50
2017-12-11T23:28:09.336Z,0.60
2017-12-11T23:30:38.814Z,0.60
2017-12-11T23:33:06.762Z,0.60
2017-12-11T23:35:34.672Z,0.70
2017-12-11T23:38:03.454Z,0.60
2017-12-11T23:40:31.338Z,0.93
2017-12-11T23:43:00.115Z,0.60
2017-12-11T23:45:27.989Z,0.80
2017-12-11T23:47:55.844Z,0.80
2017-12-11T23:50:23.727Z,0.97
2017-12-11T23:52:51.556Z,1.27
2017-12-11T23:55:19.452Z,1.00
2017-12-11T23:57:47.424Z,1.10
